To NAV CANADA Home Page Login to a new session Search on AWWS site Feedback and Comments Disclaimer Vers la page française équivalente Tips FAQ What's new on the site To the Forecasts and Observations / NOTAM section To "File a Flight Plan" website Publications and other links Update of the User's profile FIC Telephone Numbers My Weather Data Folder Route Weather Data Regional Weather Data Local Weather Data To the Forecasts and Observations / NOTAM section
Request Generated 08/29/2016 at 14:38:13 UTC . Weather information available at that time is displayed.

METAR/TAF

FORT CHIPEWYAN/AB    (show WxCam)

METAR CYPY 291400Z AUTO 29009KT 9SM CLR 07/05 A3017 RMK SLP228=
METAR CYPY 291300Z AUTO 29006KT 9SM CLR 06/04 A3016 RMK SLP224=
METAR CYPY 291200Z AUTO 29007KT 9SM CLR 06/04 A3015 RMK SLP220=

TAF CYPY 291238Z 2913/2922 29010KT P6SM FEW040
FM291800 31012KT P6SM BKN040
RMK FCST BASED ON AUTO OBS. NXT FCST BY 291800Z=
Your time UTC time
Weather data provided by Environment Canada and NAV CANADA